sensor_id;sensor_type;location;lat;lon;timestamp;pressure;altitude;pressure_sealevel;temperature;humidity
3796;BME280;1913;50.660;7.834;2022-08-05T00:01:23;97251.38;;;21.74;100.00
3796;BME280;1913;50.660;7.834;2022-08-05T00:03:50;97229.00;;;21.34;100.00
3796;BME280;1913;50.660;7.834;2022-08-05T00:06:16;97222.88;;;20.88;100.00
3796;BME280;1913;50.660;7.834;2022-08-05T00:08:41;97209.53;;;20.72;100.00
3796;BME280;1913;50.660;7.834;2022-08-05T00:11:09;97177.72;;;20.40;100.00
3796;BME280;1913;50.660;7.834;2022-08-05T00:13:37;97126.72;;;20.21;100.00
3796;BME280;1913;50.660;7.834;2022-08-05T00:16:03;97101.34;;;19.98;100.00
3796;BME280;1913;50.660;7.834;2022-08-05T00:18:29;97072.81;;;19.78;100.00
3796;BME280;1913;50.660;7.834;2022-08-05T00:20:55;97028.72;;;19.55;100.00
3796;BME280;1913;50.660;7.834;2022-08-05T00:23:21;97046.31;;;19.46;100.00
3796;BME280;1913;50.660;7.834;2022-08-05T00:25:47;97042.81;;;19.41;100.00
3796;BME280;1913;50.660;7.834;2022-08-05T00:28:13;97046.78;;;19.38;100.00
3796;BME280;1913;50.660;7.834;2022-08-05T00:30:39;97025.47;;;19.33;100.00
3796;BME280;1913;50.660;7.834;2022-08-05T00:33:04;97014.28;;;19.31;100.00
3796;BME280;1913;50.660;7.834;2022-08-05T00:35:30;97010.81;;;19.30;100.00
3796;BME280;1913;50.660;7.834;2022-08-05T00:37:55;97015.09;;;19.36;100.00
3796;BME280;1913;50.660;7.834;2022-08-05T00:40:22;97018.00;;;19.35;100.00
3796;BME280;1913;50.660;7.834;2022-08-05T00:42:48;97034.00;;;19.30;100.00
3796;BME280;1913;50.660;7.834;2022-08-05T00:45:13;97030.28;;;19.36;100.00
3796;BME280;1913;50.660;7.834;2022-08-05T00:47:39;97026.78;;;19.30;100.00
3796;BME280;1913;50.660;7.834;2022-08-05T00:50:07;97024.13;;;19.30;100.00
3796;BME280;1913;50.660;7.834;2022-08-05T00:52:32;97017.72;;;19.26;100.00
3796;BME280;1913;50.660;7.834;2022-08-05T00:54:58;97011.06;;;19.24;100.00
3796;BME280;1913;50.660;7.834;2022-08-05T00:57:23;97015.06;;;19.21;100.00
3796;BME280;1913;50.660;7.834;2022-08-05T00:59:49;97015.31;;;19.20;100.00
3796;BME280;1913;50.660;7.834;2022-08-05T01:02:14;97016.09;;;19.20;100.00
3796;BME280;1913;50.660;7.834;2022-08-05T01:04:39;97007.03;;;19.16;100.00
3796;BME280;1913;50.660;7.834;2022-08-05T01:07:05;97001.19;;;19.14;100.00
3796;BME280;1913;50.660;7.834;2022-08-05T01:09:30;96990.53;;;19.19;100.00
3796;BME280;1913;50.660;7.834;2022-08-05T01:11:58;96997.97;;;19.17;100.00
3796;BME280;1913;50.660;7.834;2022-08-05T01:14:36;96991.09;;;19.21;100.00
3796;BME280;1913;50.660;7.834;2022-08-05T01:17:08;96989.75;;;19.24;100.00
3796;BME280;1913;50.660;7.834;2022-08-05T01:19:46;96995.03;;;19.13;100.00
3796;BME280;1913;50.660;7.834;2022-08-05T01:27:58;97000.63;;;19.12;100.00
3796;BME280;1913;50.660;7.834;2022-08-05T01:30:33;96998.53;;;19.19;100.00
3796;BME280;1913;50.660;7.834;2022-08-05T01:33:05;96995.34;;;19.22;100.00
3796;BME280;1913;50.660;7.834;2022-08-05T01:35:33;96996.13;;;19.23;100.00
3796;BME280;1913;50.660;7.834;2022-08-05T01:38:00;97004.13;;;19.18;100.00
3796;BME280;1913;50.660;7.834;2022-08-05T01:40:28;97002.00;;;19.20;100.00
3796;BME280;1913;50.660;7.834;2022-08-05T01:42:56;97003.59;;;19.21;100.00
3796;BME280;1913;50.660;7.834;2022-08-05T01:45:22;96996.69;;;19.25;100.00
3796;BME280;1913;50.660;7.834;2022-08-05T01:47:50;97007.59;;;19.23;100.00
3796;BME280;1913;50.660;7.834;2022-08-05T01:50:23;97008.41;;;19.29;100.00
3796;BME280;1913;50.660;7.834;2022-08-05T01:52:51;97016.13;;;19.25;100.00
3796;BME280;1913;50.660;7.834;2022-08-05T01:55:19;97014.28;;;19.26;100.00
3796;BME280;1913;50.660;7.834;2022-08-05T01:57:47;97017.72;;;19.31;100.00
3796;BME280;1913;50.660;7.834;2022-08-05T02:00:13;97020.66;;;19.30;100.00
3796;BME280;1913;50.660;7.834;2022-08-05T02:02:52;97000.94;;;19.31;100.00
3796;BME280;1913;50.660;7.834;2022-08-05T02:05:19;96991.63;;;19.38;100.00
3796;BME280;1913;50.660;7.834;2022-08-05T02:07:46;96985.00;;;19.41;100.00
3796;BME280;1913;50.660;7.834;2022-08-05T02:10:12;96985.78;;;19.42;100.00
3796;BME280;1913;50.660;7.834;2022-08-05T02:12:52;96988.44;;;19.42;100.00
3796;BME280;1913;50.660;7.834;2022-08-05T02:15:27;96992.19;;;19.41;100.00
3796;BME280;1913;50.660;7.834;2022-08-05T02:23:13;96994.59;;;19.37;100.00
3796;BME280;1913;50.660;7.834;2022-08-05T02:25:43;97006.56;;;19.34;100.00
3796;BME280;1913;50.660;7.834;2022-08-05T02:28:11;97021.22;;;19.32;100.00
3796;BME280;1913;50.660;7.834;2022-08-05T02:30:42;97023.59;;;19.28;100.00
3796;BME280;1913;50.660;7.834;2022-08-05T02:33:09;97033.47;;;19.33;100.00
3796;BME280;1913;50.660;7.834;2022-08-05T02:35:36;97034.50;;;19.27;100.00
3796;BME280;1913;50.660;7.834;2022-08-05T02:38:04;97034.25;;;19.28;100.00
3796;BME280;1913;50.660;7.834;2022-08-05T02:40:31;97034.53;;;19.32;100.00
3796;BME280;1913;50.660;7.834;2022-08-05T02:42:57;97035.59;;;19.31;100.00
3796;BME280;1913;50.660;7.834;2022-08-05T02:45:24;97038.25;;;19.31;100.00
3796;BME280;1913;50.660;7.834;2022-08-05T02:47:53;97050.25;;;19.28;100.00
3796;BME280;1913;50.660;7.834;2022-08-05T02:50:21;97046.47;;;19.24;100.00
3796;BME280;1913;50.660;7.834;2022-08-05T02:52:47;97058.47;;;19.22;100.00
3796;BME280;1913;50.660;7.834;2022-08-05T02:55:14;97075.22;;;19.12;100.00
3796;BME280;1913;50.660;7.834;2022-08-05T02:57:40;97107.41;;;19.05;100.00
3796;BME280;1913;50.660;7.834;2022-08-05T03:00:08;97151.59;;;19.01;100.00
3796;BME280;1913;50.660;7.834;2022-08-05T03:02:39;97180.09;;;19.01;100.00
3796;BME280;1913;50.660;7.834;2022-08-05T03:05:08;97212.84;;;19.01;100.00
3796;BME280;1913;50.660;7.834;2022-08-05T03:07:35;97218.66;;;18.98;100.00
3796;BME280;1913;50.660;7.834;2022-08-05T03:10:01;97211.75;;;18.97;100.00
3796;BME280;1913;50.660;7.834;2022-08-05T03:12:34;97200.81;;;18.99;100.00
3796;BME280;1913;50.660;7.834;2022-08-05T03:15:01;97218.66;;;18.98;100.00
3796;BME280;1913;50.660;7.834;2022-08-05T03:17:27;97241.03;;;18.97;100.00
3796;BME280;1913;50.660;7.834;2022-08-05T03:19:52;97225.88;;;19.03;100.00
3796;BME280;1913;50.660;7.834;2022-08-05T03:22:18;97225.94;;;19.08;100.00
3796;BME280;1913;50.660;7.834;2022-08-05T03:24:45;97217.66;;;19.04;100.00
3796;BME280;1913;50.660;7.834;2022-08-05T03:27:11;97209.69;;;19.09;100.00
3796;BME280;1913;50.660;7.834;2022-08-05T03:29:37;97223.59;;;19.17;100.00
3796;BME280;1913;50.660;7.834;2022-08-05T03:32:09;97226.53;;;19.20;100.00
3796;BME280;1913;50.660;7.834;2022-08-05T03:34:34;97230.53;;;19.18;100.00
3796;BME280;1913;50.660;7.834;2022-08-05T03:37:01;97223.63;;;19.22;100.00
3796;BME280;1913;50.660;7.834;2022-08-05T03:39:28;97224.69;;;19.21;100.00
3796;BME280;1913;50.660;7.834;2022-08-05T03:41:54;97232.66;;;19.16;100.00
3796;BME280;1913;50.660;7.834;2022-08-05T03:44:20;97223.88;;;19.20;100.00
3796;BME280;1913;50.660;7.834;2022-08-05T03:46:45;97228.16;;;19.21;100.00
3796;BME280;1913;50.660;7.834;2022-08-05T03:49:10;97244.16;;;19.21;100.00
3796;BME280;1913;50.660;7.834;2022-08-05T03:51:52;97242.78;;;19.19;100.00
3796;BME280;1913;50.660;7.834;2022-08-05T03:54:30;97231.78;;;19.10;100.00
3796;BME280;1913;50.660;7.834;2022-08-05T03:56:58;97222.97;;;19.04;100.00
3796;BME280;1913;50.660;7.834;2022-08-05T03:59:27;97217.66;;;19.04;100.00
3796;BME280;1913;50.660;7.834;2022-08-05T04:01:56;97209.75;;;19.14;100.00
3796;BME280;1913;50.660;7.834;2022-08-05T04:04:23;97214.22;;;19.09;100.00
3796;BME280;1913;50.660;7.834;2022-08-05T04:06:50;97228.34;;;19.09;100.00
3796;BME280;1913;50.660;7.834;2022-08-05T04:09:16;97225.16;;;19.12;100.00
3796;BME280;1913;50.660;7.834;2022-08-05T04:11:42;97224.63;;;19.10;100.00
3796;BME280;1913;50.660;7.834;2022-08-05T04:14:08;97214.44;;;19.02;100.00
3796;BME280;1913;50.660;7.834;2022-08-05T04:16:34;97212.03;;;19.01;100.00
3796;BME280;1913;50.660;7.834;2022-08-05T04:19:01;97205.94;;;19.05;100.00
3796;BME280;1913;50.660;7.834;2022-08-05T04:21:27;97196.34;;;19.04;100.00
3796;BME280;1913;50.660;7.834;2022-08-05T04:23:52;97196.09;;;19.06;100.00
3796;BME280;1913;50.660;7.834;2022-08-05T04:26:18;97188.59;;;19.03;100.00
3796;BME280;1913;50.660;7.834;2022-08-05T04:28:44;97187.06;;;19.12;100.00
3796;BME280;1913;50.660;7.834;2022-08-05T04:31:09;97181.47;;;19.13;100.00
3796;BME280;1913;50.660;7.834;2022-08-05T04:33:35;97174.03;;;19.16;100.00
3796;BME280;1913;50.660;7.834;2022-08-05T04:36:00;97158.06;;;19.16;100.00
3796;BME280;1913;50.660;7.834;2022-08-05T04:38:26;97150.34;;;19.19;100.00
3796;BME280;1913;50.660;7.834;2022-08-05T04:40:51;97125.34;;;19.25;100.00
3796;BME280;1913;50.660;7.834;2022-08-05T04:43:16;97121.34;;;19.28;100.00
3796;BME280;1913;50.660;7.834;2022-08-05T04:45:42;97120.00;;;19.20;100.00
3796;BME280;1913;50.660;7.834;2022-08-05T04:48:09;97119.19;;;19.20;100.00
3796;BME280;1913;50.660;7.834;2022-08-05T04:50:46;97117.38;;;19.25;100.00
3796;BME280;1913;50.660;7.834;2022-08-05T04:53:13;97119.41;;;19.13;100.00
3796;BME280;1913;50.660;7.834;2022-08-05T04:55:40;97105.81;;;19.04;100.00
3796;BME280;1913;50.660;7.834;2022-08-05T04:58:07;97077.31;;;19.05;100.00
3796;BME280;1913;50.660;7.834;2022-08-05T05:00:33;97037.09;;;19.06;100.00
3796;BME280;1913;50.660;7.834;2022-08-05T05:02:59;97035.97;;;18.92;100.00
3796;BME280;1913;50.660;7.834;2022-08-05T05:05:24;97067.97;;;18.97;100.00
3796;BME280;1913;50.660;7.834;2022-08-05T05:07:50;97080.19;;;18.93;100.00
3796;BME280;1913;50.660;7.834;2022-08-05T05:10:16;97093.50;;;18.93;100.00
3796;BME280;1913;50.660;7.834;2022-08-05T05:12:41;97089.72;;;18.84;100.00
3796;BME280;1913;50.660;7.834;2022-08-05T05:15:07;97078.78;;;18.80;100.00
3796;BME280;1913;50.660;7.834;2022-08-05T05:17:37;97054.72;;;18.65;100.00
3796;BME280;1913;50.660;7.834;2022-08-05T05:20:04;97037.94;;;18.64;100.00
3796;BME280;1913;50.660;7.834;2022-08-05T05:22:29;97049.88;;;18.62;100.00
3796;BME280;1913;50.660;7.834;2022-08-05T05:24:55;97060.53;;;18.62;100.00
3796;BME280;1913;50.660;7.834;2022-08-05T05:27:20;97068.00;;;18.65;100.00
3796;BME280;1913;50.660;7.834;2022-08-05T05:29:46;97074.13;;;18.65;100.00
3796;BME280;1913;50.660;7.834;2022-08-05T05:32:11;97092.25;;;18.69;100.00
3796;BME280;1913;50.660;7.834;2022-08-05T05:34:36;97131.38;;;18.68;100.00
3796;BME280;1913;50.660;7.834;2022-08-05T05:37:02;97146.59;;;18.73;100.00
3796;BME280;1913;50.660;7.834;2022-08-05T05:39:27;97146.91;;;18.76;100.00
3796;BME280;1913;50.660;7.834;2022-08-05T05:41:52;97144.03;;;18.88;100.00
3796;BME280;1913;50.660;7.834;2022-08-05T05:44:18;97143.28;;;18.93;100.00
3796;BME280;1913;50.660;7.834;2022-08-05T05:46:43;97135.59;;;19.01;100.00
3796;BME280;1913;50.660;7.834;2022-08-05T05:49:09;97128.75;;;19.10;100.00
3796;BME280;1913;50.660;7.834;2022-08-05T05:51:34;97119.69;;;19.17;100.00
3796;BME280;1913;50.660;7.834;2022-08-05T05:53:59;97118.13;;;19.21;100.00
3796;BME280;1913;50.660;7.834;2022-08-05T05:56:29;97118.97;;;19.26;100.00
3796;BME280;1913;50.660;7.834;2022-08-05T05:58:55;97111.25;;;19.25;100.00
3796;BME280;1913;50.660;7.834;2022-08-05T06:01:20;97098.16;;;19.18;100.00
3796;BME280;1913;50.660;7.834;2022-08-05T06:03:46;97099.19;;;19.17;100.00
3796;BME280;1913;50.660;7.834;2022-08-05T06:06:11;97101.34;;;19.20;100.00
3796;BME280;1913;50.660;7.834;2022-08-05T06:08:37;97096.81;;;19.21;100.00
3796;BME280;1913;50.660;7.834;2022-08-05T06:11:02;97104.56;;;19.27;100.00
3796;BME280;1913;50.660;7.834;2022-08-05T06:13:29;97115.03;;;19.39;100.00
3796;BME280;1913;50.660;7.834;2022-08-05T06:15:54;97122.22;;;19.44;100.00
3796;BME280;1913;50.660;7.834;2022-08-05T06:18:20;97128.41;;;19.59;100.00
3796;BME280;1913;50.660;7.834;2022-08-05T06:20:45;97137.03;;;19.77;100.00
3796;BME280;1913;50.660;7.834;2022-08-05T06:23:10;97136.25;;;19.87;100.00
3796;BME280;1913;50.660;7.834;2022-08-05T06:25:36;97134.41;;;20.02;100.00
3796;BME280;1913;50.660;7.834;2022-08-05T06:28:01;97141.66;;;20.12;100.00
3796;BME280;1913;50.660;7.834;2022-08-05T06:30:26;97145.66;;;20.15;100.00
3796;BME280;1913;50.660;7.834;2022-08-05T06:32:52;97162.47;;;20.15;100.00
3796;BME280;1913;50.660;7.834;2022-08-05T06:35:18;97166.97;;;19.99;100.00
3796;BME280;1913;50.660;7.834;2022-08-05T06:37:44;97175.53;;;20.12;100.00
3796;BME280;1913;50.660;7.834;2022-08-05T06:40:10;97162.47;;;20.30;100.00
3796;BME280;1913;50.660;7.834;2022-08-05T06:42:36;97164.88;;;20.22;100.00
3796;BME280;1913;50.660;7.834;2022-08-05T06:45:01;97152.88;;;20.29;100.00
3796;BME280;1913;50.660;7.834;2022-08-05T06:47:27;97142.75;;;20.47;100.00
3796;BME280;1913;50.660;7.834;2022-08-05T06:49:52;97154.25;;;20.42;100.00
3796;BME280;1913;50.660;7.834;2022-08-05T06:52:18;97157.69;;;20.38;100.00
3796;BME280;1913;50.660;7.834;2022-08-05T06:54:43;97169.75;;;20.50;100.00
3796;BME280;1913;50.660;7.834;2022-08-05T06:57:09;97167.03;;;20.45;100.00
3796;BME280;1913;50.660;7.834;2022-08-05T06:59:36;97171.84;;;20.48;100.00
3796;BME280;1913;50.660;7.834;2022-08-05T07:02:01;97173.72;;;20.63;100.00
3796;BME280;1913;50.660;7.834;2022-08-05T07:04:27;97173.19;;;20.97;100.00
3796;BME280;1913;50.660;7.834;2022-08-05T07:06:52;97169.97;;;21.05;100.00
3796;BME280;1913;50.660;7.834;2022-08-05T07:09:17;97161.97;;;21.05;100.00
3796;BME280;1913;50.660;7.834;2022-08-05T07:11:43;97156.53;;;21.31;100.00
3796;BME280;1913;50.660;7.834;2022-08-05T07:14:08;97164.09;;;21.13;100.00
3796;BME280;1913;50.660;7.834;2022-08-05T07:16:52;97170.72;;;21.41;100.00
3796;BME280;1913;50.660;7.834;2022-08-05T07:19:24;97175.81;;;21.22;100.00
3796;BME280;1913;50.660;7.834;2022-08-05T07:21:50;97174.47;;;21.20;100.00
3796;BME280;1913;50.660;7.834;2022-08-05T07:24:16;97165.41;;;21.05;100.00
3796;BME280;1913;50.660;7.834;2022-08-05T07:26:42;97181.97;;;21.13;100.00
3796;BME280;1913;50.660;7.834;2022-08-05T07:29:08;97171.56;;;21.21;100.00
3796;BME280;1913;50.660;7.834;2022-08-05T07:31:34;97167.28;;;21.15;100.00
3796;BME280;1913;50.660;7.834;2022-08-05T07:33:59;97166.44;;;21.30;100.00
3796;BME280;1913;50.660;7.834;2022-08-05T07:36:25;97176.28;;;21.55;100.00
3796;BME280;1913;50.660;7.834;2022-08-05T07:38:51;97186.75;;;21.41;100.00
3796;BME280;1913;50.660;7.834;2022-08-05T07:41:18;97175.72;;;21.63;100.00
3796;BME280;1913;50.660;7.834;2022-08-05T07:43:44;97168.13;;;21.86;100.00
3796;BME280;1913;50.660;7.834;2022-08-05T07:46:10;97166.88;;;22.22;100.00
3796;BME280;1913;50.660;7.834;2022-08-05T07:48:35;97165.19;;;22.71;100.00
3796;BME280;1913;50.660;7.834;2022-08-05T07:51:00;97176.22;;;23.28;100.00
3796;BME280;1913;50.660;7.834;2022-08-05T07:53:26;97171.53;;;23.38;100.00
3796;BME280;1913;50.660;7.834;2022-08-05T07:55:51;97169.03;;;23.71;100.00
3796;BME280;1913;50.660;7.834;2022-08-05T07:58:16;97165.88;;;23.40;100.00
3796;BME280;1913;50.660;7.834;2022-08-05T08:00:42;97177.78;;;23.05;100.00
3796;BME280;1913;50.660;7.834;2022-08-05T08:03:09;97188.25;;;22.67;100.00
3796;BME280;1913;50.660;7.834;2022-08-05T08:05:36;97198.63;;;22.79;100.00
3796;BME280;1913;50.660;7.834;2022-08-05T08:08:01;97202.91;;;22.40;100.00
3796;BME280;1913;50.660;7.834;2022-08-05T08:10:27;97207.38;;;22.06;100.00
3796;BME280;1913;50.660;7.834;2022-08-05T08:12:53;97215.59;;;21.60;100.00
3796;BME280;1913;50.660;7.834;2022-08-05T08:15:18;97225.53;;;21.39;100.00
3796;BME280;1913;50.660;7.834;2022-08-05T08:17:44;97223.41;;;21.36;100.00
3796;BME280;1913;50.660;7.834;2022-08-05T08:20:10;97235.16;;;21.09;100.00
3796;BME280;1913;50.660;7.834;2022-08-05T08:22:35;97243.16;;;21.24;100.00
3796;BME280;1913;50.660;7.834;2022-08-05T08:25:01;97242.94;;;20.95;100.00
3796;BME280;1913;50.660;7.834;2022-08-05T08:27:27;97245.06;;;20.93;100.00
3796;BME280;1913;50.660;7.834;2022-08-05T08:29:52;97241.03;;;20.86;100.00
3796;BME280;1913;50.660;7.834;2022-08-05T08:32:17;97243.19;;;20.89;100.00
3796;BME280;1913;50.660;7.834;2022-08-05T08:34:43;97247.47;;;21.00;100.00
3796;BME280;1913;50.660;7.834;2022-08-05T08:37:08;97252.53;;;21.01;100.00
3796;BME280;1913;50.660;7.834;2022-08-05T08:39:34;97255.19;;;20.91;100.00
3796;BME280;1913;50.660;7.834;2022-08-05T08:42:00;97267.50;;;20.82;100.00
3796;BME280;1913;50.660;7.834;2022-08-05T08:44:31;97276.56;;;20.91;100.00
3796;BME280;1913;50.660;7.834;2022-08-05T08:46:57;97277.38;;;20.92;100.00
3796;BME280;1913;50.660;7.834;2022-08-05T08:49:24;97275.75;;;20.91;100.00
3796;BME280;1913;50.660;7.834;2022-08-05T08:51:57;97274.69;;;20.82;100.00
3796;BME280;1913;50.660;7.834;2022-08-05T08:54:24;97280.81;;;20.67;100.00
3796;BME280;1913;50.660;7.834;2022-08-05T08:56:50;97281.28;;;20.43;100.00
3796;BME280;1913;50.660;7.834;2022-08-05T08:59:19;97271.34;;;20.23;100.00
3796;BME280;1913;50.660;7.834;2022-08-05T09:01:45;97280.41;;;20.22;100.00
3796;BME280;1913;50.660;7.834;2022-08-05T09:04:12;97282.31;;;20.32;100.00
3796;BME280;1913;50.660;7.834;2022-08-05T09:06:37;97281.19;;;20.23;100.00
3796;BME280;1913;50.660;7.834;2022-08-05T09:09:03;97286.56;;;20.28;100.00
3796;BME280;1913;50.660;7.834;2022-08-05T09:11:31;97274.56;;;20.30;100.00
3796;BME280;1913;50.660;7.834;2022-08-05T09:13:58;97258.31;;;20.47;100.00
3796;BME280;1913;50.660;7.834;2022-08-05T09:16:25;97242.91;;;20.70;100.00
3796;BME280;1913;50.660;7.834;2022-08-05T09:18:51;97241.31;;;20.99;100.00
3796;BME280;1913;50.660;7.834;2022-08-05T09:21:17;97244.25;;;21.03;100.00
3796;BME280;1913;50.660;7.834;2022-08-05T09:23:44;97257.84;;;20.91;100.00
3796;BME280;1913;50.660;7.834;2022-08-05T09:26:14;97258.41;;;20.78;100.00
3796;BME280;1913;50.660;7.834;2022-08-05T09:28:41;97269.88;;;20.94;100.00
3796;BME280;1913;50.660;7.834;2022-08-05T09:31:12;97261.34;;;20.97;100.00
3796;BME280;1913;50.660;7.834;2022-08-05T09:33:48;97262.69;;;20.79;100.00
3796;BME280;1913;50.660;7.834;2022-08-05T09:36:14;97274.97;;;20.75;100.00
3796;BME280;1913;50.660;7.834;2022-08-05T09:38:54;97276.56;;;20.71;100.00
3796;BME280;1913;50.660;7.834;2022-08-05T09:41:20;97274.13;;;20.69;100.00
3796;BME280;1913;50.660;7.834;2022-08-05T09:43:45;97281.06;;;20.55;100.00
3796;BME280;1913;50.660;7.834;2022-08-05T09:46:32;97280.25;;;20.60;100.00
3796;BME280;1913;50.660;7.834;2022-08-05T09:48:59;97282.41;;;20.58;100.00
3796;BME280;1913;50.660;7.834;2022-08-05T09:51:37;97279.41;;;20.49;100.00
3796;BME280;1913;50.660;7.834;2022-08-05T09:54:06;97283.34;;;20.31;100.00
3796;BME280;1913;50.660;7.834;2022-08-05T09:56:37;97289.53;;;20.31;100.00
3796;BME280;1913;50.660;7.834;2022-08-05T09:59:05;97284.94;;;20.27;100.00
3796;BME280;1913;50.660;7.834;2022-08-05T10:01:32;97280.16;;;20.29;100.00
3796;BME280;1913;50.660;7.834;2022-08-05T10:04:04;97280.47;;;20.43;100.00
3796;BME280;1913;50.660;7.834;2022-08-05T10:06:31;97277.06;;;20.63;100.00
3796;BME280;1913;50.660;7.834;2022-08-05T10:09:17;97276.28;;;20.88;100.00
3796;BME280;1913;50.660;7.834;2022-08-05T10:11:43;97275.75;;;20.80;100.00
3796;BME280;1913;50.660;7.834;2022-08-05T10:14:25;97281.59;;;20.57;100.00
3796;BME280;1913;50.660;7.834;2022-08-05T10:16:52;97288.78;;;20.51;100.00
3796;BME280;1913;50.660;7.834;2022-08-05T10:19:21;97298.56;;;20.30;100.00
3796;BME280;1913;50.660;7.834;2022-08-05T10:21:47;97303.34;;;20.23;100.00
3796;BME280;1913;50.660;7.834;2022-08-05T10:24:18;97302.53;;;20.18;100.00
3796;BME280;1913;50.660;7.834;2022-08-05T10:26:46;97298.03;;;20.28;100.00
3796;BME280;1913;50.660;7.834;2022-08-05T10:29:12;97305.25;;;20.28;100.00
3796;BME280;1913;50.660;7.834;2022-08-05T10:31:38;97314.66;;;20.46;100.00
3796;BME280;1913;50.660;7.834;2022-08-05T10:34:05;97300.19;;;20.37;100.00
3796;BME280;1913;50.660;7.834;2022-08-05T10:36:32;97293.59;;;20.54;100.00
3796;BME280;1913;50.660;7.834;2022-08-05T10:39:02;97303.28;;;20.91;100.00
3796;BME280;1913;50.660;7.834;2022-08-05T10:41:36;97289.41;;;20.89;100.00
3796;BME280;1913;50.660;7.834;2022-08-05T10:44:10;97294.72;;;21.56;100.00
3796;BME280;1913;50.660;7.834;2022-08-05T10:46:45;97296.72;;;22.20;100.00
3796;BME280;1913;50.660;7.834;2022-08-05T10:49:11;97304.44;;;22.27;100.00
3796;BME280;1913;50.660;7.834;2022-08-05T10:51:49;97300.81;;;22.52;100.00
3796;BME280;1913;50.660;7.834;2022-08-05T10:54:16;97296.81;;;22.54;100.00
3796;BME280;1913;50.660;7.834;2022-08-05T10:56:48;97305.22;;;22.32;100.00
3796;BME280;1913;50.660;7.834;2022-08-05T10:59:19;97313.34;;;22.02;100.00
3796;BME280;1913;50.660;7.834;2022-08-05T11:02:05;97311.41;;;22.22;100.00
3796;BME280;1913;50.660;7.834;2022-08-05T11:04:30;97317.59;;;22.18;100.00
3796;BME280;1913;50.660;7.834;2022-08-05T11:09:23;97319.56;;;22.52;100.00
3796;BME280;1913;50.660;7.834;2022-08-05T11:11:50;97319.03;;;22.55;100.00
3796;BME280;1913;50.660;7.834;2022-08-05T11:14:42;97324.88;;;22.62;100.00
3796;BME280;1913;50.660;7.834;2022-08-05T11:19:55;97326.31;;;22.93;100.00
3796;BME280;1913;50.660;7.834;2022-08-05T11:25:33;97338.41;;;23.88;100.00
3796;BME280;1913;50.660;7.834;2022-08-05T11:33:33;97355.53;;;23.93;100.00
3796;BME280;1913;50.660;7.834;2022-08-05T11:41:04;97369.47;;;22.32;100.00
3796;BME280;1913;50.660;7.834;2022-08-05T11:43:30;97377.53;;;22.12;100.00
3796;BME280;1913;50.660;7.834;2022-08-05T11:45:56;97375.22;;;21.64;100.00
3796;BME280;1913;50.660;7.834;2022-08-05T11:48:22;97377.88;;;21.59;100.00
3796;BME280;1913;50.660;7.834;2022-08-05T11:50:48;97381.31;;;21.19;100.00
3796;BME280;1913;50.660;7.834;2022-08-05T11:53:15;97384.22;;;21.02;100.00
3796;BME280;1913;50.660;7.834;2022-08-05T11:55:54;97384.47;;;20.90;100.00
3796;BME280;1913;50.660;7.834;2022-08-05T11:58:33;97392.25;;;20.97;100.00
3796;BME280;1913;50.660;7.834;2022-08-05T12:01:10;97391.19;;;21.03;100.00
3796;BME280;1913;50.660;7.834;2022-08-05T12:06:13;97387.16;;;20.90;100.00
3796;BME280;1913;50.660;7.834;2022-08-05T12:08:59;97388.16;;;20.74;100.00
3796;BME280;1913;50.660;7.834;2022-08-05T12:11:28;97386.31;;;20.79;100.00
3796;BME280;1913;50.660;7.834;2022-08-05T12:13:57;97398.13;;;20.99;100.00
3796;BME280;1913;50.660;7.834;2022-08-05T12:16:24;97398.97;;;21.10;100.00
3796;BME280;1913;50.660;7.834;2022-08-05T12:18:50;97398.97;;;21.10;100.00
3796;BME280;1913;50.660;7.834;2022-08-05T12:21:18;97405.63;;;21.07;100.00
3796;BME280;1913;50.660;7.834;2022-08-05T12:24:11;97410.97;;;21.07;100.00
3796;BME280;1913;50.660;7.834;2022-08-05T12:26:49;97418.59;;;20.68;100.00
3796;BME280;1913;50.660;7.834;2022-08-05T12:29:23;97427.88;;;20.50;100.00
3796;BME280;1913;50.660;7.834;2022-08-05T12:31:52;97435.44;;;19.83;100.00
3796;BME280;1913;50.660;7.834;2022-08-05T12:34:20;97445.69;;;19.65;100.00
3796;BME280;1913;50.660;7.834;2022-08-05T12:36:47;97452.25;;;19.25;100.00
3796;BME280;1913;50.660;7.834;2022-08-05T12:39:14;97464.16;;;18.95;100.00
3796;BME280;1913;50.660;7.834;2022-08-05T12:41:41;97464.88;;;18.69;100.00
3796;BME280;1913;50.660;7.834;2022-08-05T12:44:11;97471.91;;;18.36;100.00
3796;BME280;1913;50.660;7.834;2022-08-05T12:46:38;97485.78;;;18.21;100.00
3796;BME280;1913;50.660;7.834;2022-08-05T12:51:50;97483.81;;;18.11;100.00
3796;BME280;1913;50.660;7.834;2022-08-05T12:54:24;97488.69;;;18.36;100.00
3796;BME280;1913;50.660;7.834;2022-08-05T12:56:52;97488.06;;;18.90;100.00
3796;BME280;1913;50.660;7.834;2022-08-05T12:59:23;97491.34;;;19.46;100.00
3796;BME280;1913;50.660;7.834;2022-08-05T13:02:05;97491.47;;;20.21;100.00
3796;BME280;1913;50.660;7.834;2022-08-05T13:04:35;97490.25;;;20.44;100.00
3796;BME280;1913;50.660;7.834;2022-08-05T13:07:09;97488.88;;;20.36;100.00
3796;BME280;1913;50.660;7.834;2022-08-05T13:09:39;97499.97;;;20.55;100.00
3796;BME280;1913;50.660;7.834;2022-08-05T13:12:10;97496.66;;;20.43;100.00
3796;BME280;1913;50.660;7.834;2022-08-05T13:14:44;97504.50;;;20.60;100.00
3796;BME280;1913;50.660;7.834;2022-08-05T13:17:15;97509.50;;;20.46;100.00
3796;BME280;1913;50.660;7.834;2022-08-05T13:19:55;97511.63;;;20.44;100.00
3796;BME280;1913;50.660;7.834;2022-08-05T13:22:21;97521.63;;;20.21;100.00
3796;BME280;1913;50.660;7.834;2022-08-05T13:24:47;97520.75;;;20.16;100.00
3796;BME280;1913;50.660;7.834;2022-08-05T13:27:26;97517.66;;;20.29;100.00
3796;BME280;1913;50.660;7.834;2022-08-05T13:29:52;97520.34;;;20.29;100.00
3796;BME280;1913;50.660;7.834;2022-08-05T13:32:17;97519.97;;;20.52;100.00
3796;BME280;1913;50.660;7.834;2022-08-05T13:34:43;97524.16;;;20.43;100.00
3796;BME280;1913;50.660;7.834;2022-08-05T13:37:08;97526.94;;;20.59;100.00
3796;BME280;1913;50.660;7.834;2022-08-05T13:39:34;97530.47;;;20.69;100.00
3796;BME280;1913;50.660;7.834;2022-08-05T13:41:59;97532.03;;;21.23;100.00
3796;BME280;1913;50.660;7.834;2022-08-05T13:44:24;97527.38;;;21.76;100.00
3796;BME280;1913;50.660;7.834;2022-08-05T13:46:50;97527.28;;;22.93;100.00
3796;BME280;1913;50.660;7.834;2022-08-05T13:49:15;97528.00;;;23.20;100.00